Time;durP1;ratioP1;P1;durP2;ratioP2;P2;SDS_P1;SDS_P2;PMS_P1;PMS_P2;Temp;Humidity;BMP_temperature;BMP_pressure;BME280_temperature;BME280_humidity;BME280_pressure;Samples;Min_cycle;Max_cycle;Signal;HPM_P1;HPM_P2
2023/09/09 00:01:27;;;;;;;24.67;14.75;;;20.90;99.90;;;;;;4966871;28;20123;-89
2023/09/09 00:03:53;;;;;;;18.70;13.70;;;20.90;99.90;;;;;;4992097;28;20098;-89
2023/09/09 00:06:18;;;;;;;19.65;14.48;;;20.80;99.90;;;;;;4972799;28;20046;-90
2023/09/09 00:08:44;;;;;;;18.70;13.15;;;20.80;99.90;;;;;;4970650;28;20046;-90
2023/09/09 00:11:10;;;;;;;25.48;15.10;;;20.80;99.90;;;;;;4971264;28;20026;-90
2023/09/09 00:13:36;;;;;;;16.95;13.65;;;20.80;99.90;;;;;;4976458;28;20069;-88
2023/09/09 00:16:02;;;;;;;23.70;14.48;;;20.80;99.90;;;;;;4997400;28;20038;-89
2023/09/09 00:18:27;;;;;;;19.00;14.40;;;20.80;99.90;;;;;;4981507;28;20029;-89
2023/09/09 00:20:53;;;;;;;19.15;14.45;;;20.80;99.90;;;;;;4992611;28;20035;-91
2023/09/09 00:23:19;;;;;;;18.45;14.70;;;20.80;99.90;;;;;;4973949;28;20022;-90
2023/09/09 00:25:45;;;;;;;19.85;14.77;;;20.80;99.90;;;;;;4973248;28;20243;-90
2023/09/09 00:28:11;;;;;;;26.85;16.00;;;20.70;99.90;;;;;;4968931;28;20493;-90
2023/09/09 00:30:37;;;;;;;21.83;15.25;;;20.70;99.90;;;;;;4980534;28;20018;-91
2023/09/09 00:33:03;;;;;;;19.65;14.45;;;20.70;99.90;;;;;;4979372;28;20046;-91
2023/09/09 00:35:32;;;;;;;21.00;14.35;;;20.70;99.90;;;;;;4974814;28;20422;-90
2023/09/09 00:37:57;;;;;;;17.10;14.13;;;20.60;99.90;;;;;;4978001;28;20094;-91
2023/09/09 00:40:23;;;;;;;26.27;15.15;;;20.60;99.90;;;;;;4978285;28;20061;-91
2023/09/09 00:42:48;;;;;;;21.00;14.98;;;20.60;99.90;;;;;;4977737;28;20058;-91
2023/09/09 00:45:14;;;;;;;20.35;14.75;;;20.60;99.90;;;;;;4995547;28;20022;-90
2023/09/09 00:47:40;;;;;;;25.63;15.15;;;20.50;99.90;;;;;;4977951;28;20083;-89
2023/09/09 00:50:10;;;;;;;20.58;15.48;;;20.60;99.90;;;;;;4977658;28;20094;-88
2023/09/09 00:52:39;;;;;;;22.58;15.25;;;20.50;99.90;;;;;;4977682;28;20049;-91
2023/09/09 00:55:06;;;;;;;17.50;14.60;;;20.50;99.90;;;;;;4977881;28;20046;-89
2023/09/09 00:57:33;;;;;;;21.02;14.52;;;20.50;99.90;;;;;;4978760;28;20041;-90
2023/09/09 01:00:00;;;;;;;20.13;15.30;;;20.40;99.90;;;;;;4996941;28;20031;-90
2023/09/09 01:02:26;;;;;;;19.33;14.65;;;20.40;99.90;;;;;;4977617;28;20024;-91
2023/09/09 01:04:52;;;;;;;17.75;15.18;;;20.40;99.90;;;;;;4977219;28;20027;-90
2023/09/09 01:07:17;;;;;;;21.98;15.13;;;20.30;99.90;;;;;;4977330;28;20038;-88
2023/09/09 01:09:43;;;;;;;23.88;16.27;;;20.30;99.90;;;;;;4979598;28;20018;-88
2023/09/09 01:12:11;;;;;;;23.75;15.57;;;20.30;99.90;;;;;;4988760;28;20081;-90
2023/09/09 01:14:40;;;;;;;21.02;15.60;;;20.40;99.90;;;;;;4977323;28;20039;-89
2023/09/09 01:17:07;;;;;;;19.45;15.02;;;20.30;99.90;;;;;;4976942;28;20034;-90
2023/09/09 01:19:34;;;;;;;19.42;14.45;;;20.30;99.90;;;;;;4976563;28;20176;-90
2023/09/09 01:22:03;;;;;;;20.30;14.68;;;20.30;99.90;;;;;;4976774;28;20023;-88
2023/09/09 01:24:29;;;;;;;20.20;15.90;;;20.40;99.90;;;;;;4993183;28;20030;-91
2023/09/09 01:26:55;;;;;;;24.45;16.58;;;20.30;99.90;;;;;;4977421;28;20429;-90
2023/09/09 01:29:22;;;;;;;19.90;14.88;;;20.20;99.90;;;;;;4971317;28;20030;-89
2023/09/09 01:31:47;;;;;;;20.58;15.98;;;20.20;99.90;;;;;;4978162;28;20042;-90
2023/09/09 01:34:13;;;;;;;24.13;15.73;;;20.20;99.90;;;;;;4960856;28;20039;-90
2023/09/09 01:36:39;;;;;;;23.23;15.55;;;20.20;99.90;;;;;;5012040;28;20137;-89
2023/09/09 01:39:05;;;;;;;24.45;16.95;;;20.10;99.90;;;;;;4997430;28;20050;-89
2023/09/09 01:41:32;;;;;;;24.90;16.85;;;20.10;99.90;;;;;;4996281;28;20037;-90
2023/09/09 01:43:58;;;;;;;19.05;15.98;;;20.10;99.90;;;;;;4996179;28;20109;-89
2023/09/09 01:46:24;;;;;;;24.08;16.00;;;20.10;99.90;;;;;;4995792;28;20022;-90
2023/09/09 01:48:49;;;;;;;21.00;16.17;;;20.10;99.90;;;;;;4995723;28;20056;-90
2023/09/09 01:51:15;;;;;;;23.58;15.82;;;20.10;99.90;;;;;;4996361;28;20169;-90
2023/09/09 01:53:41;;;;;;;20.77;17.13;;;20.10;99.90;;;;;;4995758;28;20038;-90
2023/09/09 01:56:06;;;;;;;21.05;15.88;;;20.10;99.90;;;;;;5012401;28;20097;-90
2023/09/09 01:58:32;;;;;;;24.90;17.15;;;20.10;99.90;;;;;;4996118;28;20109;-90
2023/09/09 02:00:58;;;;;;;26.70;16.58;;;20.10;99.90;;;;;;4995380;28;20022;-90
2023/09/09 02:03:25;;;;;;;22.75;16.88;;;20.00;99.90;;;;;;4999962;28;20034;-91
2023/09/09 02:05:50;;;;;;;20.85;16.33;;;20.00;99.90;;;;;;4995807;28;20128;-90
2023/09/09 02:08:16;;;;;;;21.85;17.02;;;19.90;99.90;;;;;;4996215;28;20069;-90
2023/09/09 02:10:43;;;;;;;22.88;17.55;;;19.90;99.90;;;;;;4995573;28;20089;-91
2023/09/09 02:13:08;;;;;;;22.58;16.63;;;19.90;99.90;;;;;;5012095;28;20058;-91
2023/09/09 02:15:34;;;;;;;24.27;17.77;;;19.90;99.90;;;;;;4996295;28;20064;-90
2023/09/09 02:17:59;;;;;;;25.83;18.48;;;19.90;99.90;;;;;;4995188;28;20025;-91
2023/09/09 02:20:25;;;;;;;24.20;16.23;;;19.80;99.90;;;;;;4995229;28;20030;-91
2023/09/09 02:22:51;;;;;;;22.83;18.20;;;19.80;99.90;;;;;;4995632;28;20037;-91
2023/09/09 02:25:16;;;;;;;29.55;19.52;;;19.80;99.90;;;;;;5012367;28;20034;-91
2023/09/09 02:27:42;;;;;;;25.80;18.88;;;19.70;99.90;;;;;;4996184;28;20026;-90
2023/09/09 02:30:08;;;;;;;28.50;18.90;;;19.70;99.90;;;;;;5012422;28;20034;-90
2023/09/09 02:32:34;;;;;;;21.25;17.92;;;19.70;99.90;;;;;;5015320;28;20026;-90
2023/09/09 02:34:59;;;;;;;23.88;16.15;;;19.70;99.90;;;;;;5014331;28;20049;-89
2023/09/09 02:37:26;;;;;;;21.13;16.83;;;19.70;99.90;;;;;;5014599;28;20026;-90
2023/09/09 02:39:52;;;;;;;21.80;16.23;;;19.70;99.90;;;;;;5013323;28;20198;-90
2023/09/09 02:42:23;;;;;;;23.83;16.98;;;19.60;99.90;;;;;;5014313;28;20033;-91
2023/09/09 02:44:49;;;;;;;;;;;19.60;99.90;;;;;;5014907;28;20109;-91
2023/09/09 02:47:15;;;;;;;20.90;16.10;;;19.60;99.90;;;;;;5014915;28;19905;-91
2023/09/09 02:49:43;;;;;;;20.45;16.00;;;19.60;99.90;;;;;;5014081;28;20136;-89
2023/09/09 02:52:10;;;;;;;21.08;16.55;;;19.50;99.90;;;;;;5014152;28;20454;-91
2023/09/09 02:54:36;;;;;;;25.73;16.02;;;19.50;99.90;;;;;;5014157;28;20141;-88
2023/09/09 02:57:06;;;;;;;22.52;16.50;;;19.50;99.90;;;;;;5014293;28;20025;-89
2023/09/09 02:59:33;;;;;;;21.05;16.25;;;19.50;99.90;;;;;;5019782;28;20044;-89
2023/09/09 03:01:59;;;;;;;22.00;16.60;;;19.50;99.90;;;;;;5024909;28;20044;-89
2023/09/09 03:04:25;;;;;;;23.33;16.30;;;19.40;99.90;;;;;;5025223;28;20034;-89
2023/09/09 03:06:50;;;;;;;20.13;16.38;;;19.40;99.90;;;;;;5025110;28;20110;-90
2023/09/09 03:09:16;;;;;;;19.38;16.63;;;19.40;99.90;;;;;;5019950;28;20392;-90
2023/09/09 03:11:42;;;;;;;24.48;15.90;;;19.30;99.90;;;;;;5018308;28;20564;-89
2023/09/09 03:14:08;;;;;;;25.02;16.52;;;19.30;99.90;;;;;;5016540;28;20038;-88
2023/09/09 03:16:35;;;;;;;21.05;16.17;;;19.30;99.90;;;;;;5015594;28;20041;-89
2023/09/09 03:19:00;;;;;;;21.20;16.17;;;19.20;99.90;;;;;;5016373;28;20120;-89
2023/09/09 03:21:26;;;;;;;18.58;15.48;;;19.20;99.90;;;;;;5016522;28;20072;-88
2023/09/09 03:23:51;;;;;;;21.60;15.82;;;19.20;99.90;;;;;;5015283;28;20026;-90
2023/09/09 03:26:19;;;;;;;24.15;16.33;;;19.10;99.90;;;;;;5013942;28;20080;-90
2023/09/09 03:28:48;;;;;;;25.02;17.52;;;19.10;99.90;;;;;;5008628;28;20022;-90
2023/09/09 03:31:14;;;;;;;27.27;18.38;;;19.00;99.90;;;;;;4994127;28;20494;-89
2023/09/09 03:33:40;;;;;;;26.65;18.70;;;19.00;99.90;;;;;;5010009;28;20045;-90
2023/09/09 03:36:07;;;;;;;25.17;18.65;;;19.00;99.90;;;;;;4995152;28;20046;-90
2023/09/09 03:38:32;;;;;;;24.60;18.50;;;19.00;99.90;;;;;;5011809;28;20023;-90
2023/09/09 03:40:58;;;;;;;22.33;17.98;;;18.90;99.90;;;;;;4993946;28;20461;-90
2023/09/09 03:43:24;;;;;;;22.45;17.05;;;18.90;99.90;;;;;;4993702;28;20104;-90
2023/09/09 03:45:56;;;;;;;23.48;17.05;;;18.90;99.90;;;;;;4995434;28;20165;-90
2023/09/09 03:48:23;;;;;;;22.55;17.25;;;18.80;99.90;;;;;;5012136;28;20105;-90
2023/09/09 03:50:48;;;;;;;19.55;16.33;;;18.80;99.90;;;;;;4993050;28;20561;-91
2023/09/09 03:53:14;;;;;;;21.02;16.77;;;18.70;99.90;;;;;;4993095;28;20035;-90
2023/09/09 03:55:40;;;;;;;21.58;17.00;;;18.70;99.90;;;;;;4994820;28;20092;-88
2023/09/09 03:58:05;;;;;;;23.33;17.48;;;18.70;99.90;;;;;;4993919;28;20082;-90
2023/09/09 04:00:31;;;;;;;20.08;16.52;;;18.70;99.90;;;;;;4993231;28;20026;-89
2023/09/09 04:02:57;;;;;;;23.95;17.83;;;18.70;99.90;;;;;;5003699;28;20049;-90
2023/09/09 04:05:24;;;;;;;29.35;18.80;;;18.60;99.90;;;;;;5003380;28;20026;-90
2023/09/09 04:07:50;;;;;;;28.98;19.23;;;18.60;99.90;;;;;;5009826;28;20031;-88
2023/09/09 04:10:16;;;;;;;22.50;17.88;;;18.50;99.90;;;;;;5030524;28;20049;-88
2023/09/09 04:12:42;;;;;;;27.65;19.88;;;18.50;99.90;;;;;;5015200;28;20044;-89
2023/09/09 04:15:10;;;;;;;22.70;18.30;;;18.40;99.90;;;;;;5013907;28;20053;-89
2023/09/09 04:17:36;;;;;;;24.98;19.95;;;18.40;99.90;;;;;;5005594;28;20433;-89
2023/09/09 04:20:03;;;;;;;27.63;19.75;;;18.40;99.90;;;;;;4997414;28;20023;-90
2023/09/09 04:22:29;;;;;;;26.17;20.58;;;18.30;99.90;;;;;;4997760;28;20034;-90
2023/09/09 04:24:55;;;;;;;27.45;21.13;;;18.30;99.90;;;;;;5012635;28;20062;-89
2023/09/09 04:27:21;;;;;;;28.75;21.60;;;18.30;99.90;;;;;;4995261;28;20029;-90
2023/09/09 04:29:47;;;;;;;32.63;22.08;;;18.30;99.90;;;;;;5008195;28;20030;-92
2023/09/09 04:32:12;;;;;;;25.17;19.58;;;18.30;99.90;;;;;;5014115;28;20025;-91
2023/09/09 04:34:38;;;;;;;24.25;18.92;;;18.30;99.90;;;;;;5013761;28;20200;-90
2023/09/09 04:37:04;;;;;;;28.48;20.67;;;18.30;99.90;;;;;;4997937;28;20042;-91
2023/09/09 04:39:30;;;;;;;26.75;21.00;;;18.30;99.90;;;;;;4997432;28;20026;-91
2023/09/09 04:41:56;;;;;;;27.00;20.10;;;18.40;99.90;;;;;;4997444;28;20024;-89
2023/09/09 04:44:21;;;;;;;24.77;20.48;;;18.50;99.90;;;;;;4997230;28;20480;-89
2023/09/09 04:46:47;;;;;;;27.50;20.60;;;18.50;99.90;;;;;;5014727;28;20100;-90
2023/09/09 04:49:13;;;;;;;64.15;51.03;;;18.60;99.90;;;;;;4996856;28;20107;-91
2023/09/09 04:51:38;;;;;;;27.73;21.48;;;18.60;99.90;;;;;;4997022;28;20036;-90
2023/09/09 04:54:04;;;;;;;31.85;23.15;;;18.70;99.90;;;;;;4996728;28;20081;-89
2023/09/09 04:56:30;;;;;;;25.33;20.00;;;18.70;99.90;;;;;;4997006;28;20052;-90
2023/09/09 04:58:55;;;;;;;27.90;21.02;;;18.70;99.90;;;;;;4996575;28;20109;-90
2023/09/09 05:01:21;;;;;;;29.40;20.25;;;18.70;99.90;;;;;;4996729;28;20034;-89
2023/09/09 05:03:47;;;;;;;26.33;19.08;;;18.70;99.90;;;;;;5000235;28;20026;-91
2023/09/09 05:06:13;;;;;;;31.00;20.00;;;18.70;99.90;;;;;;5022882;28;20022;-89
2023/09/09 05:08:38;;;;;;;29.08;20.02;;;18.70;99.90;;;;;;5012974;28;20033;-90
2023/09/09 05:11:04;;;;;;;29.98;21.30;;;18.60;99.90;;;;;;5000695;28;20028;-90
2023/09/09 05:13:30;;;;;;;31.95;20.13;;;18.60;99.90;;;;;;4999496;28;20085;-90
2023/09/09 05:15:55;;;;;;;23.48;19.35;;;18.60;99.90;;;;;;5000093;28;20026;-91
2023/09/09 05:18:21;;;;;;;28.50;19.80;;;18.60;99.90;;;;;;5000113;28;20030;-90
2023/09/09 05:20:47;;;;;;;26.30;20.92;;;18.60;99.90;;;;;;4999792;28;20117;-90
2023/09/09 05:23:12;;;;;;;22.00;19.25;;;18.60;99.90;;;;;;4999876;28;20087;-89
2023/09/09 05:25:38;;;;;;;28.20;23.02;;;18.60;99.90;;;;;;4999485;28;20500;-88
2023/09/09 05:28:04;;;;;;;30.02;23.73;;;18.60;99.90;;;;;;5017103;28;20107;-90
2023/09/09 05:30:30;;;;;;;27.67;22.17;;;18.60;99.90;;;;;;4999499;28;20084;-89
2023/09/09 05:32:55;;;;;;;26.92;21.95;;;18.50;99.90;;;;;;5002778;28;20037;-89
2023/09/09 05:35:21;;;;;;;37.33;22.40;;;18.50;99.90;;;;;;5004662;28;20089;-88
2023/09/09 05:37:47;;;;;;;22.63;20.20;;;18.50;99.90;;;;;;5016273;28;20049;-88
2023/09/09 05:40:12;;;;;;;31.20;22.55;;;18.40;99.90;;;;;;5009592;28;20564;-89
2023/09/09 05:42:39;;;;;;;35.67;23.92;;;18.40;99.90;;;;;;5016879;28;20049;-90
2023/09/09 05:45:05;;;;;;;37.28;22.60;;;18.30;99.90;;;;;;5015760;28;20076;-90
2023/09/09 05:47:31;;;;;;;41.10;22.27;;;18.30;99.90;;;;;;5015391;28;20113;-90
2023/09/09 05:49:57;;;;;;;23.02;20.17;;;18.30;99.90;;;;;;5015534;28;20529;-89
2023/09/09 05:52:22;;;;;;;26.48;20.17;;;18.20;99.90;;;;;;5016586;28;20584;-90
2023/09/09 05:54:48;;;;;;;67.50;25.08;;;18.20;99.90;;;;;;5015715;28;20033;-89
2023/09/09 05:57:14;;;;;;;69.60;27.20;;;18.20;99.90;;;;;;5019703;28;20058;-88
2023/09/09 05:59:39;;;;;;;49.75;28.80;;;18.10;99.90;;;;;;5024569;28;20121;-90
2023/09/09 06:02:08;;;;;;;43.65;28.23;;;18.10;99.90;;;;;;5022682;28;20033;-90
2023/09/09 06:04:34;;;;;;;49.30;30.95;;;18.10;99.90;;;;;;5020885;28;20172;-89
2023/09/09 06:06:59;;;;;;;47.88;32.33;;;18.10;99.90;;;;;;5018523;28;20041;-89
2023/09/09 06:09:25;;;;;;;37.92;27.52;;;18.10;99.90;;;;;;5016850;28;20026;-90
2023/09/09 06:11:51;;;;;;;33.47;27.10;;;18.10;99.90;;;;;;5016344;28;20081;-91
2023/09/09 06:14:16;;;;;;;36.38;28.42;;;18.10;99.90;;;;;;5015819;28;20104;-90
2023/09/09 06:16:42;;;;;;;37.70;30.52;;;18.10;99.90;;;;;;5016533;28;20026;-90
2023/09/09 06:19:08;;;;;;;35.40;28.13;;;18.20;99.90;;;;;;5014779;28;20030;-89
2023/09/09 06:21:33;;;;;;;38.45;29.15;;;18.20;99.90;;;;;;5015134;28;20025;-89
2023/09/09 06:23:59;;;;;;;33.92;27.67;;;18.20;99.90;;;;;;5014669;28;20117;-90
2023/09/09 06:26:30;;;;;;;36.45;29.52;;;18.20;99.90;;;;;;5014933;28;20432;-90
2023/09/09 06:28:56;;;;;;;38.33;30.65;;;18.20;99.90;;;;;;5008242;28;20022;-90
2023/09/09 06:31:22;;;;;;;45.22;26.23;;;18.20;99.90;;;;;;5011255;28;20037;-89
2023/09/09 06:33:48;;;;;;;36.50;23.73;;;18.20;99.90;;;;;;4994728;28;20043;-89
2023/09/09 06:36:13;;;;;;;40.95;25.88;;;18.10;99.90;;;;;;4980299;28;20129;-90
2023/09/09 06:38:39;;;;;;;37.95;28.13;;;18.10;99.90;;;;;;4959538;28;20112;-89
2023/09/09 06:41:05;;;;;;;36.35;26.67;;;18.10;99.90;;;;;;4959360;28;20515;-90
2023/09/09 06:43:30;;;;;;;37.92;27.75;;;18.20;99.90;;;;;;4959102;28;20022;-90
2023/09/09 06:45:57;;;;;;;38.97;26.17;;;18.20;99.90;;;;;;4975518;28;20122;-92
2023/09/09 06:48:23;;;;;;;34.53;25.23;;;18.20;99.90;;;;;;4976689;28;20022;-91
2023/09/09 06:50:49;;;;;;;36.65;26.17;;;18.30;99.90;;;;;;4959442;28;20042;-90
2023/09/09 06:53:15;;;;;;;31.67;24.92;;;18.40;99.90;;;;;;4959756;28;20031;-90
2023/09/09 06:55:44;;;;;;;33.03;25.77;;;18.40;99.90;;;;;;4959127;28;20567;-91
2023/09/09 06:58:09;;;;;;;31.48;25.63;;;18.40;99.90;;;;;;4959323;28;20023;-91
2023/09/09 07:00:36;;;;;;;31.23;25.48;;;18.40;99.90;;;;;;4975328;28;20042;-88
2023/09/09 07:03:03;;;;;;;30.10;25.35;;;18.50;99.90;;;;;;4959109;28;20156;-89
2023/09/09 07:05:33;;;;;;;33.95;27.05;;;18.50;99.90;;;;;;4969394;28;20107;-89
2023/09/09 07:07:59;;;;;;;28.40;24.95;;;18.50;99.90;;;;;;4964883;28;20057;-90
2023/09/09 07:10:25;;;;;;;31.45;25.15;;;18.60;99.90;;;;;;4963679;28;20027;-89
2023/09/09 07:12:52;;;;;;;26.75;23.52;;;18.60;99.90;;;;;;4960760;28;20077;-90
2023/09/09 07:15:18;;;;;;;25.50;22.65;;;18.60;99.90;;;;;;4959191;28;20054;-89
2023/09/09 07:17:46;;;;;;;26.35;23.55;;;18.70;99.90;;;;;;4975126;28;20510;-91
2023/09/09 07:20:12;;;;;;;29.08;23.95;;;18.70;99.90;;;;;;4958733;28;20093;-89
2023/09/09 07:22:38;;;;;;;27.83;23.35;;;18.80;99.90;;;;;;4958928;28;20031;-90
2023/09/09 07:25:05;;;;;;;26.73;22.33;;;18.90;99.90;;;;;;4957609;28;20023;-91
2023/09/09 07:27:31;;;;;;;26.55;23.13;;;18.90;99.90;;;;;;4958733;28;20128;-90
2023/09/09 07:29:57;;;;;;;23.38;20.88;;;19.00;99.90;;;;;;4972910;28;20490;-90
2023/09/09 07:32:23;;;;;;;26.35;22.52;;;19.00;99.90;;;;;;4978004;28;20104;-91
2023/09/09 07:34:50;;;;;;;25.63;22.27;;;19.10;99.90;;;;;;4973980;28;20054;-90
2023/09/09 07:37:16;;;;;;;24.45;21.90;;;19.10;99.90;;;;;;4978113;28;20022;-90
2023/09/09 07:39:57;;;;;;;23.55;20.98;;;19.20;99.90;;;;;;4977490;28;20031;-91
2023/09/09 07:42:22;;;;;;;26.58;21.63;;;19.30;99.90;;;;;;4978157;28;20037;-90
2023/09/09 07:44:48;;;;;;;30.27;24.13;;;19.40;99.90;;;;;;4977924;28;20027;-91
2023/09/09 07:47:13;;;;;;;31.23;24.67;;;19.60;99.90;;;;;;4977709;28;20057;-90
2023/09/09 07:49:39;;;;;;;29.23;22.88;;;19.60;99.90;;;;;;4977882;28;20080;-89
2023/09/09 07:52:05;;;;;;;32.17;23.02;;;19.70;99.90;;;;;;4993651;28;20041;-90
2023/09/09 07:54:31;;;;;;;26.98;22.98;;;19.80;99.90;;;;;;4977345;28;20076;-90
2023/09/09 07:57:01;;;;;;;30.45;25.20;;;19.90;99.90;;;;;;4978368;28;20432;-90
2023/09/09 07:59:28;;;;;;;31.83;25.42;;;20.00;99.90;;;;;;4977751;28;20050;-89
2023/09/09 08:01:54;;;;;;;39.85;25.42;;;20.10;99.90;;;;;;4979145;28;20034;-88
2023/09/09 08:04:20;;;;;;;29.30;22.52;;;20.20;99.90;;;;;;4987920;28;20026;-88
2023/09/09 08:06:46;;;;;;;29.48;24.17;;;20.30;99.90;;;;;;4990305;28;20521;-88
2023/09/09 08:09:12;;;;;;;27.38;22.60;;;20.40;99.90;;;;;;5009539;28;20045;-89
2023/09/09 08:11:38;;;;;;;30.33;23.17;;;20.50;99.90;;;;;;5000522;28;20074;-89
2023/09/09 08:14:04;;;;;;;27.48;22.83;;;20.60;99.90;;;;;;5000327;28;20037;-89
2023/09/09 08:16:30;;;;;;;29.05;23.40;;;20.70;99.90;;;;;;5005151;28;20030;-89
2023/09/09 08:18:57;;;;;;;29.67;23.05;;;20.80;99.90;;;;;;4981073;28;20121;-91
2023/09/09 08:21:23;;;;;;;32.88;22.33;;;21.00;99.90;;;;;;4980041;28;20033;-91
2023/09/09 08:23:49;;;;;;;29.77;22.33;;;21.10;99.90;;;;;;4995730;28;20031;-91
2023/09/09 08:26:15;;;;;;;27.40;21.70;;;21.20;99.90;;;;;;4979446;28;20026;-91
2023/09/09 08:28:40;;;;;;;25.67;19.48;;;21.30;99.90;;;;;;4974486;28;20026;-90
2023/09/09 08:31:06;;;;;;;22.42;18.60;;;21.40;99.90;;;;;;4974883;28;20034;-90
2023/09/09 08:33:32;;;;;;;32.50;21.25;;;21.40;99.90;;;;;;4958874;28;20042;-91
2023/09/09 08:36:06;;;;;;;29.50;21.48;;;21.50;99.90;;;;;;4982508;28;20050;-90
2023/09/09 08:38:32;;;;;;;29.90;22.17;;;21.60;99.90;;;;;;4998936;28;20113;-89
2023/09/09 08:41:16;;;;;;;27.52;21.30;;;21.60;99.90;;;;;;4998585;28;20096;-92
2023/09/09 08:44:14;;;;;;;29.92;22.95;;;21.70;99.90;;;;;;5015424;28;20061;-91
2023/09/09 08:47:05;;;;;;;26.38;21.08;;;21.80;99.90;;;;;;4998925;28;20177;-90
2023/09/09 08:49:38;;;;;;;29.33;21.00;;;21.90;99.90;;;;;;5003769;28;20026;-91
2023/09/09 08:52:12;;;;;;;33.10;21.17;;;22.00;99.90;;;;;;5003593;28;20391;-90
2023/09/09 08:54:38;;;;;;;32.20;22.02;;;22.00;99.90;;;;;;5003636;28;20038;-91
2023/09/09 08:57:04;;;;;;;36.92;22.25;;;22.10;99.90;;;;;;5009312;28;20026;-90
2023/09/09 08:59:31;;;;;;;28.00;20.58;;;22.20;99.90;;;;;;5012879;28;20042;-90
2023/09/09 09:01:58;;;;;;;30.52;18.60;;;22.40;99.90;;;;;;5014179;28;20061;-90
2023/09/09 09:04:26;;;;;;;27.45;17.52;;;22.50;99.90;;;;;;5029237;28;20113;-90
2023/09/09 09:06:52;;;;;;;23.63;17.88;;;22.60;99.90;;;;;;5007930;28;20033;-89
2023/09/09 09:09:18;;;;;;;25.45;16.95;;;22.80;99.90;;;;;;5003354;28;20062;-90
2023/09/09 09:11:44;;;;;;;23.25;15.32;;;22.90;99.90;;;;;;5001394;28;20030;-91
2023/09/09 09:14:11;;;;;;;22.83;15.50;;;23.00;99.90;;;;;;4999542;28;20050;-91
2023/09/09 09:16:44;;;;;;;32.50;16.10;;;23.20;99.90;;;;;;4999066;28;20125;-91
2023/09/09 09:19:29;;;;;;;24.23;15.07;;;23.40;99.90;;;;;;4999993;28;20038;-91
2023/09/09 09:21:56;;;;;;;25.13;14.60;;;23.60;99.90;;;;;;5000547;28;20046;-92
2023/09/09 09:24:25;;;;;;;26.17;14.43;;;23.80;99.90;;;;;;5003333;28;20053;-92
2023/09/09 09:26:51;;;;;;;26.25;12.23;;;24.00;99.90;;;;;;4998466;28;20029;-94
2023/09/09 09:29:17;;;;;;;23.90;11.48;;;24.20;99.90;;;;;;5006676;28;20022;-92
2023/09/09 09:31:51;;;;;;;26.40;9.98;;;24.40;99.90;;;;;;5017197;28;20485;-94
2023/09/09 09:34:19;;;;;;;25.83;11.00;;;24.60;99.90;;;;;;5017035;28;20062;-94
2023/09/09 09:36:46;;;;;;;22.38;10.20;;;24.80;99.90;;;;;;5017228;28;20045;-94
2023/09/09 09:39:12;;;;;;;19.27;9.20;;;25.10;99.90;;;;;;5016647;28;20033;-92
2023/09/09 09:41:43;;;;;;;20.30;10.07;;;25.30;99.90;;;;;;5016597;28;20129;-94
2023/09/09 09:44:19;;;;;;;21.63;9.63;;;25.50;99.90;;;;;;5016713;28;20030;-93
2023/09/09 09:47:00;;;;;;;25.45;9.70;;;25.70;99.90;;;;;;5017980;28;20036;-93
2023/09/09 09:49:53;;;;;;;24.92;8.65;;;25.90;99.90;;;;;;5016896;28;20510;-92
2023/09/09 09:52:23;;;;;;;26.00;8.30;;;26.10;99.90;;;;;;5014068;28;20072;-93
2023/09/09 09:54:51;;;;;;;30.25;8.95;;;26.40;99.90;;;;;;5018779;28;20180;-93
2023/09/09 09:57:19;;;;;;;15.20;7.30;;;26.60;99.90;;;;;;5017410;28;20026;-93
2023/09/09 09:59:44;;;;;;;21.13;7.47;;;26.80;99.90;;;;;;5022350;28;20037;-93
2023/09/09 10:02:11;;;;;;;21.63;7.13;;;27.10;99.90;;;;;;5016994;28;20022;-92
2023/09/09 10:04:41;;;;;;;27.13;7.07;;;27.30;99.90;;;;;;5016828;28;20022;-92
2023/09/09 10:07:17;;;;;;;20.33;6.07;;;27.50;99.90;;;;;;5016629;28;20057;-93
2023/09/09 10:10:09;;;;;;;19.25;6.97;;;27.70;99.90;;;;;;5015836;28;20065;-94
2023/09/09 10:12:48;;;;;;;12.88;5.18;;;27.90;99.90;;;;;;5016781;28;20113;-94
2023/09/09 10:15:15;;;;;;;15.60;5.68;;;28.10;99.80;;;;;;5016053;28;20052;-93
2023/09/09 10:17:42;;;;;;;15.82;5.32;;;28.30;98.50;;;;;;5015744;28;20025;-93
2023/09/09 10:20:11;;;;;;;12.25;4.68;;;28.50;96.40;;;;;;5016798;28;20022;-94
2023/09/09 10:22:37;;;;;;;14.35;4.43;;;28.70;94.90;;;;;;5017306;28;20017;-92
2023/09/09 10:25:05;;;;;;;23.33;5.07;;;28.80;93.10;;;;;;5015238;28;20030;-93
2023/09/09 10:27:31;;;;;;;22.15;4.85;;;29.00;91.60;;;;;;5015487;28;20101;-94
2023/09/09 10:29:58;;;;;;;17.08;4.93;;;29.30;90.20;;;;;;5000454;28;20030;-92
2023/09/09 10:32:25;;;;;;;17.15;5.05;;;29.40;87.50;;;;;;5012493;28;20030;-91
2023/09/09 10:34:53;;;;;;;18.15;5.18;;;29.70;85.60;;;;;;4995646;28;20061;-93
2023/09/09 10:37:19;;;;;;;16.88;4.78;;;30.00;84.80;;;;;;4995878;28;20086;-92
2023/09/09 10:39:48;;;;;;;19.38;4.93;;;30.30;83.50;;;;;;4996698;28;20040;-93
2023/09/09 10:42:15;;;;;;;25.88;4.70;;;30.50;81.80;;;;;;4997340;28;20030;-93
2023/09/09 10:44:46;;;;;;;24.63;5.38;;;30.70;80.10;;;;;;4996428;28;20077;-93
2023/09/09 10:47:15;;;;;;;18.67;4.45;;;30.80;79.10;;;;;;5021881;28;20105;-95
2023/09/09 10:49:41;;;;;;;15.15;4.63;;;31.00;77.90;;;;;;4997756;28;20018;-93
2023/09/09 10:52:07;;;;;;;13.25;4.55;;;31.20;77.20;;;;;;4996351;28;20035;-95
2023/09/09 10:54:34;;;;;;;15.52;5.30;;;31.40;76.20;;;;;;4995592;28;20042;-94
2023/09/09 10:57:02;;;;;;;16.13;4.30;;;31.60;74.70;;;;;;4996285;28;20026;-94
2023/09/09 10:59:32;;;;;;;14.48;5.13;;;31.80;74.10;;;;;;5000326;28;20034;-92
2023/09/09 11:02:28;;;;;;;17.02;4.97;;;31.90;72.90;;;;;;5007850;28;20018;-93
2023/09/09 11:05:10;;;;;;;17.13;5.03;;;32.00;71.70;;;;;;4990606;28;20496;-92
2023/09/09 11:07:44;;;;;;;12.23;5.13;;;32.00;70.90;;;;;;4994873;28;20026;-94
2023/09/09 11:10:16;;;;;;;14.80;4.78;;;32.20;70.80;;;;;;4994844;28;20121;-93
2023/09/09 11:12:56;;;;;;;15.50;4.68;;;32.10;70.40;;;;;;4994606;28;20073;-94
2023/09/09 11:15:28;;;;;;;17.50;4.85;;;32.40;70.10;;;;;;4994400;28;20398;-94
2023/09/09 11:17:53;;;;;;;16.45;4.32;;;32.50;69.30;;;;;;4994595;28;20032;-95
2023/09/09 11:20:21;;;;;;;15.55;5.20;;;32.50;67.90;;;;;;5010715;28;20109;-95
2023/09/09 11:22:47;;;;;;;13.68;4.47;;;32.40;67.60;;;;;;5010395;28;20113;-94
2023/09/09 11:25:15;;;;;;;13.88;4.63;;;32.20;67.60;;;;;;4994256;28;20057;-91
2023/09/09 11:27:41;;;;;;;12.35;4.38;;;32.00;67.70;;;;;;4994465;28;20034;-93
2023/09/09 11:30:07;;;;;;;14.80;4.53;;;31.90;68.20;;;;;;5009892;28;20055;-94
2023/09/09 11:32:33;;;;;;;10.20;3.80;;;31.50;67.70;;;;;;5013639;28;20041;-94
2023/09/09 11:34:58;;;;;;;10.25;3.80;;;31.30;68.00;;;;;;5012981;28;20520;-95
2023/09/09 11:37:25;;;;;;;15.45;4.18;;;31.00;68.40;;;;;;5013790;28;20021;-91
2023/09/09 11:39:54;;;;;;;16.10;4.35;;;31.00;68.80;;;;;;5013447;28;20076;-94
2023/09/09 11:42:23;;;;;;;15.63;4.18;;;31.10;68.70;;;;;;5014535;28;20033;-94
2023/09/09 11:44:49;;;;;;;15.07;3.95;;;31.40;68.20;;;;;;5014310;28;20488;-93
2023/09/09 11:47:17;;;;;;;18.00;5.13;;;31.70;67.90;;;;;;5013572;28;20034;-93
2023/09/09 11:49:48;;;;;;;15.32;4.63;;;31.80;67.10;;;;;;5014204;28;20021;-94
2023/09/09 11:52:17;;;;;;;14.48;4.32;;;32.00;66.40;;;;;;5015742;28;20125;-94
2023/09/09 11:54:46;;;;;;;15.48;4.45;;;32.10;65.90;;;;;;5016040;28;20034;-94
2023/09/09 11:57:12;;;;;;;16.60;4.43;;;32.40;65.90;;;;;;5021155;28;20041;-93
2023/09/09 11:59:49;;;;;;;14.75;5.55;;;32.60;65.20;;;;;;5034081;28;20331;-91
2023/09/09 12:02:22;;;;;;;15.60;4.05;;;32.90;64.80;;;;;;5036845;28;20049;-92
2023/09/09 12:04:57;;;;;;;13.05;4.20;;;33.20;64.20;;;;;;5037310;28;20010;-89
2023/09/09 12:07:27;;;;;;;18.88;4.90;;;33.40;63.30;;;;;;5036935;28;20026;-91
2023/09/09 12:09:53;;;;;;;16.42;4.10;;;33.40;62.60;;;;;;5035692;28;20046;-92
2023/09/09 12:12:19;;;;;;;15.07;4.43;;;33.50;61.90;;;;;;5036473;28;20042;-93
2023/09/09 12:14:46;;;;;;;11.20;4.43;;;33.40;61.90;;;;;;5029340;28;20042;-92
2023/09/09 12:17:14;;;;;;;13.77;4.50;;;33.50;62.10;;;;;;5019898;28;20053;-93
2023/09/09 12:19:39;;;;;;;17.15;4.25;;;33.60;61.80;;;;;;5019877;28;20025;-94
2023/09/09 12:22:06;;;;;;;11.27;3.95;;;33.80;61.50;;;;;;5020577;28;20535;-91
2023/09/09 12:24:41;;;;;;;11.27;4.55;;;33.90;61.10;;;;;;5034824;28;20033;-93
2023/09/09 12:27:07;;;;;;;9.93;3.83;;;34.00;60.60;;;;;;5018121;28;20053;-94
2023/09/09 12:29:45;;;;;;;17.15;4.82;;;34.20;60.30;;;;;;5007101;28;20335;-93
2023/09/09 12:32:10;;;;;;;11.32;3.22;;;34.30;59.50;;;;;;4996667;28;20030;-91